Main page
METAR-TAF:

METAR-TAF

Airports :

Kavala International Airport

Kavala, Greece

latitude: 40-59N, longitude: 024-36E, elevation: 5 m

Current weather observation

The report was made 34 minutes ago, at 03:20 UTC
Wind 3 kt from the East/Northeast
Temperature 15°C
Humidity 77%
Pressure 1021 hPa
Visibility 10 km or more
no clouds below 1500 m and no cumulonimbus

METAR: LGKV 260320Z 06003KT CAVOK 15/11 Q1021

Time: 06:54 (03:54 UTC)

Forecast

The report was made 4 hours and 54 minutes ago, at 23:00 UTC
Forecast valid from 26 at 00 UTC to 26 at 24 UTC
Wind 3 kt from variable directions
Visibility 10 km or more
no clouds below 1500 m and no cumulonimbus
Becoming
from 26 at 10 UTC to 26 at 12 UTC
Wind 13 kt from the Southwest
Becoming
from 26 at 16 UTC to 26 at 18 UTC
Wind 3 kt from variable directions

TAF: LGKV 252300Z 2600/2624 VRB03KT CAVOK BECMG 2610/2612 23013KT BECMG 2616/2618 VRB03KT

Weather observations and forecasts of more than 4000 airports (METAR and TAF reports).

The available stations are represented by yellow and red dots on the map.

Hover mouse over dot to see the name of the station.

Then click to see weather observations and forecasts.

To change the map : click on the green buttons with a black cross to zoom in, on the green button with a dash to zoom out, or on the green arrows for adjacent maps.


METAR-TAF: